Terminal Aerodrome Forecast
Issued by NWS

Home | Current Version | Previous Version | Graphics & Text | Print | Product List | Glossary On
Versions: 1 2 3 4 5 6 7 8 9 10 11 12 13 14 15 16 17 18 19 20 21
000
FTUS43 KIWX 211720
TAFSBN
TAF
KSBN 211720Z 2118/2218 17011KT P6SM BKN150
     FM211900 18011KT P6SM SCT250
     FM220300 19004KT 4SM BR BKN050
     FM220400 VRB03KT 2SM BR BKN030
      TEMPO 2207/2210 1/2SM FG OVC005
     FM221200 08004KT P6SM OVC010=

USA.gov is the U.S. government's official web portal to all federal, state and local government web resources and services.